createdAt,value
2023-04-12T00:01:53.000Z,0.88
2023-04-12T00:04:22.872Z,0.70
2023-04-12T00:06:52.027Z,0.70
2023-04-12T00:09:19.269Z,0.88
2023-04-12T00:11:46.506Z,0.93
2023-04-12T00:14:13.940Z,0.50
2023-04-12T00:16:41.689Z,0.85
2023-04-12T00:19:08.902Z,0.60
2023-04-12T00:21:37.333Z,0.60
2023-04-12T00:24:04.733Z,0.68
2023-04-12T00:26:31.947Z,0.60
2023-04-12T00:28:59.139Z,0.60
2023-04-12T00:31:26.450Z,0.75
2023-04-12T00:33:53.760Z,0.65
2023-04-12T00:36:21.222Z,0.80
2023-04-12T00:38:48.441Z,0.85
2023-04-12T00:41:15.863Z,0.95
2023-04-12T00:43:43.148Z,0.80
2023-04-12T00:46:12.346Z,0.70
2023-04-12T00:48:40.160Z,0.52
2023-04-12T00:51:08.329Z,0.60
2023-04-12T00:53:36.327Z,0.77
2023-04-12T00:56:03.874Z,0.60
2023-04-12T00:58:31.924Z,0.70
2023-04-12T01:01:00.368Z,0.60
2023-04-12T01:03:28.086Z,0.50
2023-04-12T01:06:14.121Z,0.50
2023-04-12T01:08:53.744Z,0.47
2023-04-12T01:11:33.488Z,0.40
2023-04-12T01:14:06.771Z,0.63
2023-04-12T01:16:44.431Z,0.50
2023-04-12T01:19:30.821Z,0.68
2023-04-12T01:21:57.992Z,0.70
2023-04-12T01:24:36.927Z,0.70
2023-04-12T01:27:04.438Z,0.52
2023-04-12T01:29:32.117Z,0.60
2023-04-12T01:32:04.906Z,0.60
2023-04-12T01:34:34.002Z,0.40
2023-04-12T01:37:02.718Z,0.40
2023-04-12T01:39:34.007Z,0.40
2023-04-12T01:42:01.717Z,0.40
2023-04-12T01:44:28.970Z,0.50
2023-04-12T01:46:56.699Z,0.30
2023-04-12T01:49:27.489Z,0.30
2023-04-12T01:51:54.740Z,0.40
2023-04-12T01:54:35.238Z,0.40
2023-04-12T01:57:04.759Z,0.40
2023-04-12T01:59:42.617Z,0.60
2023-04-12T02:02:10.428Z,0.60
2023-04-12T02:04:38.882Z,0.40
2023-04-12T02:07:06.246Z,0.50
2023-04-12T02:09:39.720Z,0.50
2023-04-12T02:12:07.491Z,0.50
2023-04-12T02:14:34.769Z,0.50
2023-04-12T02:17:05.507Z,0.45
2023-04-12T02:19:32.971Z,0.60
2023-04-12T02:22:01.060Z,0.60
2023-04-12T02:24:29.587Z,0.65
2023-04-12T02:26:56.824Z,0.70
2023-04-12T02:29:24.026Z,0.70
2023-04-12T02:31:51.390Z,0.75
2023-04-12T02:34:18.998Z,0.65
2023-04-12T02:36:49.809Z,0.60
2023-04-12T02:39:22.226Z,0.40
2023-04-12T02:41:49.672Z,0.70
2023-04-12T02:44:17.026Z,0.60
2023-04-12T02:46:44.248Z,0.70
2023-04-12T02:49:11.630Z,0.63
2023-04-12T02:51:39.238Z,0.57
2023-04-12T02:54:06.468Z,0.95
2023-04-12T02:56:36.255Z,0.55
2023-04-12T02:59:03.458Z,0.70
2023-04-12T03:01:32.132Z,0.73
2023-04-12T03:03:59.829Z,0.70
2023-04-12T03:06:27.371Z,0.55
2023-04-12T03:08:54.583Z,0.60
2023-04-12T03:11:21.825Z,0.65
2023-04-12T03:13:49.006Z,0.60
2023-04-12T03:16:23.508Z,0.60
2023-04-12T03:18:51.873Z,0.57
2023-04-12T03:21:19.254Z,0.47
2023-04-12T03:23:46.471Z,0.40
2023-04-12T03:26:13.739Z,0.50
2023-04-12T03:28:41.808Z,0.40
2023-04-12T03:31:10.678Z,0.40
2023-04-12T03:33:38.145Z,0.40
2023-04-12T03:36:07.414Z,0.80
2023-04-12T03:38:34.609Z,0.50
2023-04-12T03:41:01.876Z,0.50
2023-04-12T03:43:35.726Z,0.50
2023-04-12T03:46:04.195Z,0.43
2023-04-12T03:48:31.534Z,0.50
2023-04-12T03:50:59.982Z,0.55
2023-04-12T03:53:27.751Z,0.40
2023-04-12T03:55:54.983Z,0.40
2023-04-12T03:58:22.167Z,0.50
2023-04-12T04:00:49.732Z,0.50
2023-04-12T04:03:17.109Z,0.50
2023-04-12T04:05:44.399Z,0.50
2023-04-12T04:08:11.670Z,0.68
2023-04-12T04:10:38.881Z,0.60
2023-04-12T04:13:06.128Z,0.57
2023-04-12T04:15:33.456Z,0.60
2023-04-12T04:18:01.020Z,0.90
2023-04-12T04:20:28.312Z,0.50
2023-04-12T04:22:55.613Z,0.80
2023-04-12T04:25:29.858Z,0.90
2023-04-12T04:27:59.596Z,0.80
2023-04-12T04:30:26.871Z,0.70
2023-04-12T04:32:54.232Z,0.70
2023-04-12T04:35:21.883Z,0.70
2023-04-12T04:37:49.163Z,0.80
2023-04-12T04:40:17.119Z,0.88
2023-04-12T04:42:46.322Z,0.80
2023-04-12T04:45:14.091Z,0.80
2023-04-12T04:47:41.528Z,1.00
2023-04-12T04:50:09.114Z,1.08
2023-04-12T04:52:37.663Z,1.10
2023-04-12T04:55:07.398Z,0.70
2023-04-12T04:57:36.592Z,0.82
2023-04-12T05:00:11.112Z,0.90
2023-04-12T05:02:40.195Z,0.90
2023-04-12T05:05:08.339Z,0.77
2023-04-12T05:07:36.924Z,0.60
2023-04-12T05:10:04.556Z,1.30
2023-04-12T05:12:31.994Z,1.17
2023-04-12T05:15:11.150Z,0.85
2023-04-12T05:17:41.215Z,0.85
2023-04-12T05:20:10.758Z,1.00
2023-04-12T05:22:38.078Z,1.20
2023-04-12T05:25:06.402Z,1.10
2023-04-12T05:27:33.701Z,1.00
2023-04-12T05:30:01.030Z,1.00
2023-04-12T05:32:28.347Z,1.50
2023-04-12T05:34:56.173Z,1.23
2023-04-12T05:37:23.442Z,1.50
2023-04-12T05:39:50.757Z,1.85
2023-04-12T05:42:17.996Z,1.05
2023-04-12T05:44:46.524Z,1.30
2023-04-12T05:47:14.675Z,1.50
2023-04-12T05:49:41.888Z,1.10
2023-04-12T05:52:09.194Z,1.20
2023-04-12T05:54:36.582Z,1.48
2023-04-12T05:57:04.057Z,1.20
2023-04-12T05:59:31.310Z,1.20
2023-04-12T06:01:59.175Z,1.40
2023-04-12T06:04:42.060Z,1.15
2023-04-12T06:07:10.140Z,1.20
2023-04-12T06:09:37.376Z,1.05
2023-04-12T06:12:04.702Z,1.00
2023-04-12T06:14:31.910Z,1.00
2023-04-12T06:16:59.184Z,0.70
2023-04-12T06:19:26.724Z,0.93
2023-04-12T06:21:54.150Z,0.93
2023-04-12T06:24:21.356Z,0.80
2023-04-12T06:26:48.665Z,0.90
2023-04-12T06:29:15.957Z,0.95
2023-04-12T06:31:43.288Z,0.80
2023-04-12T06:34:10.667Z,1.05
2023-04-12T06:36:40.131Z,0.68
2023-04-12T06:39:07.599Z,0.82
2023-04-12T06:41:34.846Z,0.60
2023-04-12T06:44:02.092Z,0.68
2023-04-12T06:46:29.827Z,0.80
2023-04-12T06:48:57.290Z,0.70
2023-04-12T06:51:24.692Z,0.60
2023-04-12T06:53:51.920Z,0.60
2023-04-12T06:56:19.182Z,0.75
2023-04-12T06:58:46.481Z,0.50
2023-04-12T07:01:14.633Z,0.70
2023-04-12T07:03:42.029Z,0.70
2023-04-12T07:06:21.872Z,0.70
2023-04-12T07:08:52.606Z,0.70
2023-04-12T07:11:21.815Z,0.70
2023-04-12T07:13:49.626Z,0.70
2023-04-12T07:16:17.588Z,0.60
2023-04-12T07:18:44.891Z,0.73
2023-04-12T07:21:14.614Z,0.65
2023-04-12T07:23:41.987Z,0.60
2023-04-12T07:26:09.378Z,0.50
2023-04-12T07:28:36.650Z,0.60
2023-04-12T07:31:07.475Z,0.55
2023-04-12T07:33:36.208Z,0.60
2023-04-12T07:36:04.203Z,0.60
2023-04-12T07:38:31.519Z,0.50
2023-04-12T07:40:58.752Z,0.77
2023-04-12T07:43:26.145Z,0.80
2023-04-12T07:45:55.834Z,0.88
2023-04-12T07:48:23.150Z,1.10
2023-04-12T07:50:51.172Z,0.70
2023-04-12T07:53:20.045Z,0.70
2023-04-12T07:55:47.673Z,0.70
2023-04-12T07:58:15.840Z,0.68
2023-04-12T08:00:43.170Z,0.60
2023-04-12T08:03:11.913Z,0.63
2023-04-12T08:05:39.361Z,0.60
2023-04-12T08:08:06.935Z,0.70
2023-04-12T08:10:35.493Z,0.63
2023-04-12T08:13:02.701Z,0.70
2023-04-12T08:15:29.993Z,0.70
2023-04-12T08:17:57.353Z,0.60
2023-04-12T08:20:24.601Z,0.60
2023-04-12T08:22:52.398Z,0.52
2023-04-12T08:25:19.597Z,0.57
2023-04-12T08:27:46.911Z,0.95
2023-04-12T08:30:14.268Z,0.68
2023-04-12T08:32:41.861Z,0.82
2023-04-12T08:35:09.681Z,0.60
2023-04-12T08:37:36.962Z,0.50
2023-04-12T08:40:06.940Z,0.60
2023-04-12T08:42:37.856Z,0.60
2023-04-12T08:45:12.077Z,0.45
2023-04-12T08:47:40.722Z,0.75
2023-04-12T08:50:09.382Z,0.77
2023-04-12T08:52:37.750Z,0.70
2023-04-12T08:55:05.771Z,0.70
2023-04-12T08:57:33.102Z,0.90
2023-04-12T09:00:04.229Z,0.60
2023-04-12T09:02:31.889Z,0.40
2023-04-12T09:04:59.842Z,0.60
2023-04-12T09:07:28.862Z,0.50
2023-04-12T09:09:56.416Z,0.60
2023-04-12T09:12:27.288Z,0.63
2023-04-12T09:15:15.536Z,0.60
2023-04-12T09:17:43.319Z,0.70
2023-04-12T09:20:13.692Z,0.50
2023-04-12T09:22:44.489Z,0.60
2023-04-12T09:25:12.666Z,0.50
2023-04-12T09:27:47.421Z,0.68
2023-04-12T09:30:17.213Z,0.60
2023-04-12T09:32:45.557Z,0.40
2023-04-12T09:35:13.326Z,0.50
2023-04-12T09:37:41.137Z,0.52
2023-04-12T09:40:09.708Z,0.60
2023-04-12T09:42:38.249Z,0.50
2023-04-12T09:45:22.353Z,0.40
2023-04-12T09:47:50.069Z,0.60
2023-04-12T09:50:21.310Z,0.60
2023-04-12T09:52:48.561Z,0.50
2023-04-12T09:55:16.523Z,0.43
2023-04-12T09:57:44.553Z,0.60
2023-04-12T10:00:17.218Z,0.50
2023-04-12T10:02:47.121Z,0.40
2023-04-12T10:05:15.627Z,0.50
2023-04-12T10:07:43.398Z,0.40
2023-04-12T10:10:12.554Z,0.50
2023-04-12T10:12:41.407Z,0.50
2023-04-12T10:15:17.810Z,0.50
2023-04-12T10:17:50.137Z,0.50
2023-04-12T10:20:18.948Z,0.60
2023-04-12T10:22:50.940Z,0.40
2023-04-12T10:25:19.758Z,0.50
2023-04-12T10:27:47.820Z,0.90
2023-04-12T10:30:30.573Z,0.60
2023-04-12T10:33:03.953Z,0.63
2023-04-12T10:35:51.801Z,0.70
2023-04-12T10:38:19.507Z,0.90
2023-04-12T10:41:05.630Z,0.50
2023-04-12T10:43:32.889Z,0.60
2023-04-12T10:46:04.421Z,0.50
2023-04-12T10:49:00.900Z,0.88
2023-04-12T10:51:28.818Z,0.55
2023-04-12T10:54:05.193Z,0.57
2023-04-12T10:56:32.922Z,0.93
2023-04-12T10:59:00.741Z,0.50
2023-04-12T11:01:28.515Z,0.60
2023-04-12T11:04:13.836Z,0.50
2023-04-12T11:06:55.368Z,0.70
2023-04-12T11:09:25.337Z,0.70
2023-04-12T11:11:57.140Z,0.63
2023-04-12T11:14:31.311Z,0.50
2023-04-12T11:17:07.390Z,0.60
2023-04-12T11:19:35.259Z,0.68
2023-04-12T11:22:03.722Z,0.60
2023-04-12T11:24:30.989Z,0.50
2023-04-12T11:26:58.666Z,0.60
2023-04-12T11:29:26.349Z,0.50
2023-04-12T11:31:55.195Z,0.68
2023-04-12T11:34:22.967Z,0.68
2023-04-12T11:36:53.279Z,0.88
2023-04-12T11:39:21.345Z,0.80
2023-04-12T11:41:49.238Z,0.50
2023-04-12T11:44:21.869Z,0.52
2023-04-12T11:46:49.400Z,0.60
2023-04-12T11:49:17.328Z,0.50
2023-04-12T11:51:48.284Z,0.50
2023-04-12T11:54:16.795Z,0.47
2023-04-12T11:56:44.063Z,0.43
2023-04-12T11:59:11.537Z,0.50
2023-04-12T12:01:39.049Z,0.40
2023-04-12T12:04:06.889Z,0.40
2023-04-12T12:06:34.731Z,0.30
2023-04-12T12:09:03.361Z,0.30
2023-04-12T12:11:31.425Z,0.25
2023-04-12T12:14:00.513Z,0.50
2023-04-12T12:16:28.989Z,0.30
2023-04-12T12:18:56.679Z,0.20
2023-04-12T12:21:24.127Z,0.30
2023-04-12T12:23:51.525Z,0.40
2023-04-12T12:26:22.911Z,0.30
2023-04-12T12:28:54.457Z,0.40
2023-04-12T12:31:26.253Z,0.30
2023-04-12T12:33:57.482Z,0.60
2023-04-12T12:36:38.827Z,0.20
2023-04-12T12:39:13.120Z,0.40
2023-04-12T12:41:41.300Z,0.40
2023-04-12T12:44:09.015Z,0.28
2023-04-12T12:46:52.073Z,0.30
2023-04-12T12:49:21.153Z,0.35
2023-04-12T12:51:48.396Z,0.30
2023-04-12T12:54:31.764Z,0.40
2023-04-12T12:57:05.156Z,0.20
2023-04-12T12:59:32.441Z,0.38
2023-04-12T13:01:59.742Z,0.20
2023-04-12T13:04:27.282Z,0.40
2023-04-12T13:06:54.625Z,0.40
2023-04-12T13:09:21.846Z,0.30
2023-04-12T13:11:49.086Z,0.30
2023-04-12T13:14:16.889Z,0.40
2023-04-12T13:16:46.194Z,0.30
2023-04-12T13:19:13.528Z,0.22
2023-04-12T13:21:40.753Z,0.40
2023-04-12T13:24:08.027Z,0.30
2023-04-12T13:26:35.491Z,0.35
2023-04-12T13:29:03.296Z,0.40
2023-04-12T13:31:30.696Z,0.30
2023-04-12T13:33:57.976Z,0.30
2023-04-12T13:36:25.281Z,0.40
2023-04-12T13:38:52.496Z,0.30
2023-04-12T13:41:19.762Z,0.50
2023-04-12T13:43:47.090Z,0.30
2023-04-12T13:46:14.400Z,0.40
2023-04-12T13:48:41.848Z,0.30
2023-04-12T13:51:09.724Z,0.30
2023-04-12T13:53:37.138Z,0.30
2023-04-12T13:56:04.484Z,0.30
2023-04-12T13:58:31.949Z,0.30
2023-04-12T14:01:00.653Z,0.20
2023-04-12T14:03:28.146Z,0.30
2023-04-12T14:05:56.127Z,0.30
2023-04-12T14:08:23.849Z,0.40
2023-04-12T14:10:51.260Z,0.40
2023-04-12T14:13:18.491Z,0.32
2023-04-12T14:15:45.711Z,0.68
2023-04-12T14:18:13.074Z,0.30
2023-04-12T14:20:40.376Z,0.40
2023-04-12T14:23:08.128Z,0.98
2023-04-12T14:25:37.057Z,0.20
2023-04-12T14:28:04.309Z,0.30
2023-04-12T14:30:31.510Z,0.50
2023-04-12T14:32:58.946Z,0.40
2023-04-12T14:35:26.301Z,0.40
2023-04-12T14:37:53.528Z,0.30
2023-04-12T14:40:20.869Z,0.35
2023-04-12T14:42:48.085Z,0.30
2023-04-12T14:45:15.712Z,0.30
2023-04-12T14:47:43.083Z,0.28
2023-04-12T14:50:10.672Z,0.43
2023-04-12T14:52:37.932Z,0.38
2023-04-12T14:55:05.341Z,0.40
2023-04-12T14:57:32.799Z,0.40
2023-04-12T15:00:00.328Z,0.43
2023-04-12T15:02:27.918Z,0.40
2023-04-12T15:04:55.549Z,0.45
2023-04-12T15:07:23.138Z,0.30
2023-04-12T15:09:50.886Z,0.30
2023-04-12T15:12:18.287Z,0.40
2023-04-12T15:14:46.582Z,0.30
2023-04-12T15:17:13.823Z,0.30
2023-04-12T15:19:41.336Z,0.30
2023-04-12T15:22:08.581Z,0.20
2023-04-12T15:24:36.066Z,0.45
2023-04-12T15:27:05.827Z,0.30
2023-04-12T15:29:33.767Z,0.32
2023-04-12T15:32:01.330Z,0.60
2023-04-12T15:34:30.024Z,0.20
2023-04-12T15:36:57.359Z,0.30
2023-04-12T15:39:24.626Z,0.28
2023-04-12T15:41:51.923Z,0.40
2023-04-12T15:44:19.144Z,0.30
2023-04-12T15:46:56.045Z,0.40
2023-04-12T15:49:31.658Z,0.20
2023-04-12T15:52:00.754Z,0.20
2023-04-12T15:54:28.002Z,0.30
2023-04-12T15:56:55.296Z,0.30
2023-04-12T15:59:22.758Z,0.22
2023-04-12T16:01:51.166Z,0.57
2023-04-12T16:04:18.698Z,0.47
2023-04-12T16:06:46.557Z,0.38
2023-04-12T16:09:14.492Z,0.38
2023-04-12T16:11:43.748Z,0.40
2023-04-12T16:14:10.956Z,0.30
2023-04-12T16:16:42.078Z,0.30
2023-04-12T16:19:09.865Z,0.30
2023-04-12T16:21:37.709Z,0.55
2023-04-12T16:24:05.121Z,0.40
2023-04-12T16:26:32.962Z,0.47
2023-04-12T16:29:02.033Z,0.50
2023-04-12T16:31:29.717Z,0.30
2023-04-12T16:33:56.978Z,0.30
2023-04-12T16:36:26.484Z,0.47
2023-04-12T16:38:59.266Z,0.30
2023-04-12T16:41:26.871Z,0.30
2023-04-12T16:43:55.474Z,0.30
2023-04-12T16:46:22.900Z,0.40
2023-04-12T16:48:50.231Z,0.30
2023-04-12T16:51:17.579Z,0.30
2023-04-12T16:53:44.866Z,0.40
2023-04-12T16:56:12.124Z,0.32
2023-04-12T16:58:39.436Z,0.45
2023-04-12T17:01:08.001Z,0.57
2023-04-12T17:03:35.379Z,0.50
2023-04-12T17:06:02.822Z,0.30
2023-04-12T17:08:30.054Z,0.45
2023-04-12T17:10:57.335Z,0.50
2023-04-12T17:13:24.610Z,0.50
2023-04-12T17:15:51.932Z,0.73
2023-04-12T17:18:19.247Z,0.50
2023-04-12T17:20:46.565Z,0.40
2023-04-12T17:23:14.196Z,0.30
2023-04-12T17:25:41.921Z,0.45
2023-04-12T17:28:09.547Z,0.30
2023-04-12T17:30:37.051Z,0.30
2023-04-12T17:33:05.126Z,0.40
2023-04-12T17:35:32.394Z,0.40
2023-04-12T17:37:59.737Z,0.45
2023-04-12T17:40:27.106Z,0.40
2023-04-12T17:42:54.508Z,0.50
2023-04-12T17:45:23.592Z,0.50
2023-04-12T17:47:51.029Z,0.68
2023-04-12T17:50:18.322Z,0.40
2023-04-12T17:52:45.667Z,0.43
2023-04-12T17:55:12.958Z,0.55
2023-04-12T17:57:40.340Z,0.30
2023-04-12T18:00:14.212Z,0.40
2023-04-12T18:02:41.844Z,0.30
2023-04-12T18:05:09.291Z,0.40
2023-04-12T18:07:37.115Z,0.40
2023-04-12T18:10:05.462Z,0.40
2023-04-12T18:12:33.048Z,0.30
2023-04-12T18:15:00.272Z,0.40
2023-04-12T18:17:27.710Z,0.50
2023-04-12T18:19:55.267Z,0.45
2023-04-12T18:22:22.671Z,0.50
2023-04-12T18:24:49.992Z,0.30
2023-04-12T18:27:17.401Z,0.30
2023-04-12T18:29:45.080Z,0.30
2023-04-12T18:32:12.334Z,0.80
2023-04-12T18:34:39.620Z,0.40
2023-04-12T18:37:07.607Z,0.40
2023-04-12T18:39:35.992Z,0.50
2023-04-12T18:42:03.356Z,0.52
2023-04-12T18:44:31.387Z,0.52
2023-04-12T18:46:58.707Z,0.63
2023-04-12T18:49:26.043Z,0.35
2023-04-12T18:51:58.085Z,0.35
2023-04-12T18:54:27.831Z,0.40
2023-04-12T18:56:57.808Z,0.22
2023-04-12T18:59:25.236Z,0.40
2023-04-12T19:01:52.600Z,0.20
2023-04-12T19:04:19.940Z,0.22
2023-04-12T19:06:47.479Z,0.30
2023-04-12T19:09:14.834Z,0.32
2023-04-12T19:11:42.192Z,0.28
2023-04-12T19:14:09.750Z,0.30
2023-04-12T19:16:37.567Z,0.20
2023-04-12T19:19:05.195Z,0.30
2023-04-12T19:21:32.937Z,0.20
2023-04-12T19:24:00.674Z,0.20
2023-04-12T19:26:28.902Z,0.20
2023-04-12T19:28:58.778Z,0.20
2023-04-12T19:31:26.190Z,0.30
2023-04-12T19:33:54.992Z,0.30
2023-04-12T19:36:24.646Z,0.13
2023-04-12T19:38:52.190Z,0.20
2023-04-12T19:41:20.781Z,0.17
2023-04-12T19:43:48.274Z,0.10
2023-04-12T19:46:15.630Z,0.28
2023-04-12T19:48:42.909Z,0.20
2023-04-12T19:51:10.334Z,0.25
2023-04-12T19:53:37.580Z,0.30
2023-04-12T19:56:04.872Z,0.98
2023-04-12T19:58:32.222Z,0.32
2023-04-12T20:01:02.190Z,0.30
2023-04-12T20:03:30.139Z,0.35
2023-04-12T20:06:04.349Z,0.28
2023-04-12T20:08:32.209Z,0.22
2023-04-12T20:10:59.979Z,0.20
2023-04-12T20:13:27.273Z,0.30
2023-04-12T20:15:54.472Z,0.30
2023-04-12T20:18:21.864Z,0.32
2023-04-12T20:20:49.766Z,0.52
2023-04-12T20:23:17.125Z,0.50
2023-04-12T20:25:48.827Z,0.35
2023-04-12T20:28:15.858Z,0.30
2023-04-12T20:30:42.764Z,0.30
2023-04-12T20:33:09.656Z,0.30
2023-04-12T20:35:36.903Z,0.30
2023-04-12T20:38:04.420Z,0.30
2023-04-12T20:40:31.317Z,0.57
2023-04-12T20:42:58.251Z,0.40
2023-04-12T20:45:25.087Z,0.30
2023-04-12T20:47:51.973Z,0.32
2023-04-12T20:50:23.081Z,0.30
2023-04-12T20:52:51.972Z,0.28
2023-04-12T20:55:19.264Z,0.30
2023-04-12T20:57:46.102Z,0.40
2023-04-12T21:00:23.554Z,0.45
2023-04-12T21:02:50.991Z,0.28
2023-04-12T21:05:17.933Z,0.35
2023-04-12T21:07:46.755Z,0.47
2023-04-12T21:10:14.838Z,0.40
2023-04-12T21:12:42.649Z,0.30
2023-04-12T21:15:11.785Z,0.40
2023-04-12T21:17:39.085Z,0.40
2023-04-12T21:20:13.186Z,0.57
2023-04-12T21:22:42.070Z,0.50
2023-04-12T21:25:13.460Z,0.50
2023-04-12T21:27:45.195Z,0.57
2023-04-12T21:30:12.812Z,0.50
2023-04-12T21:32:41.091Z,0.50
2023-04-12T21:35:08.875Z,0.40
2023-04-12T21:37:38.870Z,0.30
2023-04-12T21:40:09.996Z,0.40
2023-04-12T21:42:37.877Z,0.73
2023-04-12T21:45:05.656Z,0.60
2023-04-12T21:47:32.684Z,0.60
2023-04-12T21:49:59.791Z,0.40
2023-04-12T21:52:26.783Z,0.50
2023-04-12T21:54:54.483Z,0.55
2023-04-12T21:57:21.639Z,0.60
2023-04-12T21:59:48.482Z,0.63
2023-04-12T22:02:15.718Z,0.70
2023-04-12T22:04:43.578Z,0.40
2023-04-12T22:07:12.692Z,0.63
2023-04-12T22:09:40.249Z,0.65
2023-04-12T22:12:09.955Z,0.70
2023-04-12T22:14:37.244Z,0.50
2023-04-12T22:17:05.993Z,0.40
2023-04-12T22:19:33.575Z,0.70
2023-04-12T22:22:01.574Z,0.40
2023-04-12T22:24:29.374Z,0.60
2023-04-12T22:26:57.543Z,0.70
2023-04-12T22:29:25.352Z,0.43
2023-04-12T22:31:52.651Z,0.60
2023-04-12T22:34:19.412Z,0.68
2023-04-12T22:36:51.728Z,0.30
2023-04-12T22:39:20.028Z,0.50
2023-04-12T22:41:49.113Z,0.40
2023-04-12T22:44:19.276Z,0.50
2023-04-12T22:46:49.183Z,0.43
2023-04-12T22:49:17.056Z,0.50
2023-04-12T22:51:44.588Z,0.60
2023-04-12T22:54:12.093Z,0.70
2023-04-12T22:56:41.763Z,0.47
2023-04-12T22:59:09.298Z,0.52
2023-04-12T23:01:36.052Z,0.68
2023-04-12T23:04:03.501Z,0.52
2023-04-12T23:06:31.437Z,0.77
2023-04-12T23:09:01.547Z,0.68
2023-04-12T23:11:28.993Z,0.88
2023-04-12T23:13:55.796Z,0.40
2023-04-12T23:16:22.631Z,0.50
2023-04-12T23:18:49.964Z,0.65
2023-04-12T23:21:16.842Z,0.40
2023-04-12T23:23:43.796Z,0.50
2023-04-12T23:26:13.493Z,0.55
2023-04-12T23:28:43.283Z,0.57
2023-04-12T23:31:10.116Z,0.40
2023-04-12T23:33:38.731Z,0.40
2023-04-12T23:36:05.899Z,0.50
2023-04-12T23:38:33.948Z,0.70
2023-04-12T23:41:02.392Z,0.60
2023-04-12T23:43:29.940Z,0.52
2023-04-12T23:45:57.314Z,0.60
2023-04-12T23:48:24.499Z,0.47
2023-04-12T23:50:51.896Z,0.50
2023-04-12T23:53:19.334Z,0.50
2023-04-12T23:55:51.856Z,0.40
2023-04-12T23:58:19.577Z,0.70
